Time;durP1;ratioP1;P1;durP2;ratioP2;P2;SDS_P1;SDS_P2;PMS_P1;PMS_P2;Temp;Humidity;BMP_temperature;BMP_pressure;BME280_temperature;BME280_humidity;BME280_pressure;Samples;Min_cycle;Max_cycle;Signal;HPM_P1;HPM_P2
2023/08/24 00:02:03;;;;;;;9.05;7.35;;;;;;;;;;4997472;28;20085;-80
2023/08/24 00:04:31;;;;;;;7.63;6.75;;;;;;;;;;4997146;28;20469;-81
2023/08/24 00:06:58;;;;;;;10.48;7.65;;;;;;;;;;4997518;28;20096;-80
2023/08/24 00:09:25;;;;;;;8.30;7.60;;;;;;;;;;4997321;28;20046;-81
2023/08/24 00:11:53;;;;;;;8.98;7.53;;;;;;;;;;5015285;28;20049;-80
2023/08/24 00:14:20;;;;;;;8.93;7.82;;;;;;;;;;5014807;28;20054;-81
2023/08/24 00:16:47;;;;;;;7.32;6.68;;;;;;;;;;4997084;28;20054;-81
2023/08/24 00:19:14;;;;;;;9.25;7.25;;;;;;;;;;5014255;28;20053;-81
2023/08/24 00:21:41;;;;;;;8.00;7.20;;;;;;;;;;4997243;28;20574;-80
2023/08/24 00:24:09;;;;;;;8.50;7.55;;;;;;;;;;4997782;28;20050;-81
2023/08/24 00:26:36;;;;;;;8.95;8.00;;;;;;;;;;5018028;28;20049;-82
2023/08/24 00:29:03;;;;;;;11.60;7.97;;;;;;;;;;5001009;28;20104;-80
2023/08/24 00:31:30;;;;;;;10.50;8.32;;;;;;;;;;5018032;28;20050;-82
2023/08/24 00:33:58;;;;;;;7.90;7.05;;;;;;;;;;5000676;28;20129;-82
2023/08/24 00:36:25;;;;;;;8.60;7.72;;;;;;;;;;5000451;28;20543;-82
2023/08/24 00:38:53;;;;;;;11.88;8.43;;;;;;;;;;5026498;23;20057;-86
2023/08/24 00:41:21;;;;;;;8.70;7.90;;;;;;;;;;4994846;28;20145;-87
2023/08/24 00:43:50;;;;;;;9.00;8.10;;;;;;;;;;4994794;28;20054;-86
2023/08/24 00:46:18;;;;;;;10.88;8.38;;;;;;;;;;4977448;28;20046;-87
2023/08/24 00:48:45;;;;;;;12.80;9.02;;;;;;;;;;4977505;28;20046;-87
2023/08/24 00:51:13;;;;;;;15.40;9.60;;;;;;;;;;4977625;28;20051;-86
2023/08/24 00:53:41;;;;;;;11.05;9.93;;;;;;;;;;4977741;28;20141;-86
2023/08/24 00:56:08;;;;;;;11.25;10.05;;;;;;;;;;4994405;28;20575;-86
2023/08/24 00:58:36;;;;;;;13.90;10.55;;;;;;;;;;4994756;28;20133;-86
2023/08/24 01:01:03;;;;;;;14.00;10.60;;;;;;;;;;4994178;28;20085;-86
2023/08/24 01:03:31;;;;;;;12.30;10.90;;;;;;;;;;4994520;28;20124;-86
2023/08/24 01:05:58;;;;;;;14.45;11.13;;;;;;;;;;4994357;28;20057;-86
2023/08/24 01:08:26;;;;;;;13.90;12.40;;;;;;;;;;4976823;28;20061;-86
2023/08/24 01:10:58;;;;;;;11.23;10.13;;;;;;;;;;4977312;28;20135;-86
2023/08/24 01:13:44;;;;;;;13.13;11.65;;;;;;;;;;4977176;28;20095;-86
2023/08/24 01:16:20;;;;;;;13.60;11.40;;;;;;;;;;4977157;28;20096;-86
2023/08/24 01:18:48;;;;;;;13.43;10.77;;;;;;;;;;4977315;28;20046;-87
2023/08/24 01:21:16;;;;;;;12.13;11.02;;;;;;;;;;4977138;28;20080;-86
2023/08/24 01:23:46;;;;;;;13.02;11.40;;;;;;;;;;4977309;28;20066;-86
2023/08/24 01:26:15;;;;;;;12.70;11.52;;;;;;;;;;4993758;28;20487;-86
2023/08/24 01:28:44;;;;;;;12.10;10.95;;;;;;;;;;4994152;28;20070;-86
2023/08/24 01:31:11;;;;;;;13.30;12.10;;;;;;;;;;4977018;28;20141;-86
2023/08/24 01:33:40;;;;;;;16.25;12.38;;;;;;;;;;4994314;28;20465;-86
2023/08/24 01:36:09;;;;;;;14.48;12.57;;;;;;;;;;4994166;28;20108;-86
2023/08/24 01:38:36;;;;;;;13.82;12.27;;;;;;;;;;4976868;28;20066;-86
2023/08/24 01:41:10;;;;;;;12.57;10.88;;;;;;;;;;4976939;28;20050;-86
2023/08/24 01:43:39;;;;;;;10.68;9.80;;;;;;;;;;4976915;28;20054;-86
2023/08/24 01:46:12;;;;;;;12.10;10.35;;;;;;;;;;4993795;28;20479;-86
2023/08/24 01:48:39;;;;;;;10.68;9.77;;;;;;;;;;4976995;28;20466;-86
2023/08/24 01:51:07;;;;;;;10.85;9.73;;;;;;;;;;4993864;28;20077;-86
2023/08/24 01:53:35;;;;;;;10.30;9.05;;;;;;;;;;4993685;28;20051;-86
2023/08/24 01:56:08;;;;;;;13.40;9.98;;;;;;;;;;4993757;28;20109;-87
2023/08/24 01:58:35;;;;;;;10.50;9.60;;;;;;;;;;4976844;28;20050;-86
2023/08/24 02:01:03;;;;;;;11.05;10.02;;;;;;;;;;4976740;28;20333;-86
2023/08/24 02:03:30;;;;;;;13.15;9.55;;;;;;;;;;4993917;28;20078;-86
2023/08/24 02:05:57;;;;;;;11.30;10.40;;;;;;;;;;4976313;28;20058;-86
2023/08/24 02:08:25;;;;;;;12.50;9.77;;;;;;;;;;4976454;28;20082;-86
2023/08/24 02:10:52;;;;;;;12.02;10.70;;;;;;;;;;4976638;28;20058;-86
2023/08/24 02:13:19;;;;;;;11.30;9.73;;;;;;;;;;4976966;28;20136;-86
2023/08/24 02:15:46;;;;;;;11.40;10.40;;;;;;;;;;4997491;28;20506;-86
2023/08/24 02:18:14;;;;;;;10.00;9.18;;;;;;;;;;4980351;28;20469;-86
2023/08/24 02:20:41;;;;;;;13.25;10.35;;;;;;;;;;4980686;28;20085;-86
2023/08/24 02:23:08;;;;;;;10.63;9.73;;;;;;;;;;4981138;28;20074;-86
2023/08/24 02:25:36;;;;;;;11.48;10.38;;;;;;;;;;4999731;28;20081;-86
2023/08/24 02:28:03;;;;;;;11.55;10.48;;;;;;;;;;4985473;28;20107;-86
2023/08/24 02:30:30;;;;;;;12.70;11.60;;;;;;;;;;5000156;28;20050;-86
2023/08/24 02:32:58;;;;;;;13.52;12.23;;;;;;;;;;4981329;28;20085;-86
2023/08/24 02:35:25;;;;;;;14.25;12.02;;;;;;;;;;4979578;28;20093;-86
2023/08/24 02:37:54;;;;;;;12.85;11.57;;;;;;;;;;4979535;28;20542;-86
2023/08/24 02:40:22;;;;;;;14.73;11.23;;;;;;;;;;4979790;28;20058;-86
2023/08/24 02:42:49;;;;;;;14.10;12.90;;;;;;;;;;4979686;28;20140;-86
2023/08/24 02:45:16;;;;;;;13.20;11.90;;;;;;;;;;4996416;28;20536;-86
2023/08/24 02:47:44;;;;;;;13.73;12.15;;;;;;;;;;4996255;28;20500;-86
2023/08/24 02:50:11;;;;;;;13.40;11.57;;;;;;;;;;4996928;28;20058;-87
2023/08/24 02:52:38;;;;;;;13.85;12.57;;;;;;;;;;4979413;28;20085;-86
2023/08/24 02:55:06;;;;;;;16.85;12.85;;;;;;;;;;4979541;28;20085;-86
2023/08/24 02:57:35;;;;;;;17.70;13.07;;;;;;;;;;4979457;28;20495;-86
2023/08/24 03:00:03;;;;;;;15.05;12.40;;;;;;;;;;4979554;28;20140;-86
2023/08/24 03:02:30;;;;;;;17.75;12.63;;;;;;;;;;4996102;28;20074;-87
2023/08/24 03:04:57;;;;;;;16.13;12.57;;;;;;;;;;4979346;28;20054;-86
2023/08/24 03:07:25;;;;;;;13.93;12.65;;;;;;;;;;4979170;28;20086;-86
2023/08/24 03:09:52;;;;;;;15.02;13.63;;;;;;;;;;4979161;28;20096;-86
2023/08/24 03:12:19;;;;;;;13.13;12.00;;;;;;;;;;4979208;28;20338;-87
2023/08/24 03:14:46;;;;;;;13.45;12.25;;;;;;;;;;4978937;28;20050;-86
2023/08/24 03:17:13;;;;;;;13.05;11.80;;;;;;;;;;4978934;28;20101;-86
2023/08/24 03:19:41;;;;;;;12.25;11.02;;;;;;;;;;4979149;28;20557;-86
2023/08/24 03:22:08;;;;;;;13.38;11.95;;;;;;;;;;4996224;28;20074;-86
2023/08/24 03:24:36;;;;;;;14.07;11.45;;;;;;;;;;4978603;28;20470;-86
2023/08/24 03:27:03;;;;;;;14.13;12.65;;;;;;;;;;4978760;28;20054;-86
2023/08/24 03:29:30;;;;;;;15.82;12.45;;;;;;;;;;4979045;28;20133;-86
2023/08/24 03:31:58;;;;;;;14.32;12.88;;;;;;;;;;4978970;28;20050;-86
2023/08/24 03:34:26;;;;;;;17.85;13.80;;;;;;;;;;4978758;28;20133;-86
2023/08/24 03:36:54;;;;;;;15.15;13.43;;;;;;;;;;4978735;28;20065;-86
2023/08/24 03:39:21;;;;;;;17.52;14.95;;;;;;;;;;4978403;28;20089;-86
2023/08/24 03:41:48;;;;;;;16.90;15.05;;;;;;;;;;4978989;28;20042;-86
2023/08/24 03:44:15;;;;;;;19.45;15.50;;;;;;;;;;4978931;28;20081;-86
2023/08/24 03:46:43;;;;;;;16.83;15.13;;;;;;;;;;4995710;28;20050;-86
2023/08/24 03:49:10;;;;;;;16.05;14.20;;;;;;;;;;4978693;28;20174;-87
2023/08/24 03:51:38;;;;;;;16.00;14.32;;;;;;;;;;4978662;28;20084;-86
2023/08/24 03:54:05;;;;;;;18.42;14.70;;;;;;;;;;4978120;28;20078;-86
2023/08/24 03:56:32;;;;;;;20.55;16.13;;;;;;;;;;4978477;28;20054;-86
2023/08/24 03:59:00;;;;;;;22.80;16.55;;;;;;;;;;4978306;28;20469;-86
2023/08/24 04:01:27;;;;;;;17.80;14.13;;;;;;;;;;4995559;28;20402;-87
2023/08/24 04:03:54;;;;;;;16.48;14.30;;;;;;;;;;4979163;28;20466;-86
2023/08/24 04:06:21;;;;;;;15.25;13.73;;;;;;;;;;4987197;28;20591;-87
2023/08/24 04:08:49;;;;;;;16.00;13.82;;;;;;;;;;4978524;28;20050;-87
2023/08/24 04:11:16;;;;;;;16.38;13.65;;;;;;;;;;4995454;28;20054;-87
2023/08/24 04:13:43;;;;;;;17.80;14.95;;;;;;;;;;4978537;28;20133;-87
2023/08/24 04:16:10;;;;;;;15.85;14.05;;;;;;;;;;4978456;28;20182;-86
2023/08/24 04:18:40;;;;;;;15.32;13.88;;;;;;;;;;4978083;28;20046;-86
2023/08/24 04:21:07;;;;;;;19.60;14.82;;;;;;;;;;4978140;28;20105;-86
2023/08/24 04:23:34;;;;;;;16.55;14.93;;;;;;;;;;4995077;28;20078;-86
2023/08/24 04:26:02;;;;;;;22.42;14.45;;;;;;;;;;4977622;28;20058;-86
2023/08/24 04:28:29;;;;;;;22.70;15.57;;;;;;;;;;4977823;28;20078;-86
2023/08/24 04:30:57;;;;;;;24.20;14.88;;;;;;;;;;4977914;28;20090;-86
2023/08/24 04:33:24;;;;;;;35.17;15.85;;;;;;;;;;4977973;28;20105;-85
2023/08/24 04:35:51;;;;;;;26.20;15.88;;;;;;;;;;4977279;28;20097;-85
2023/08/24 04:38:19;;;;;;;23.17;15.93;;;;;;;;;;4977199;28;20058;-86
2023/08/24 04:40:51;;;;;;;17.65;15.15;;;;;;;;;;4977835;28;20049;-86
2023/08/24 04:43:20;;;;;;;18.75;14.57;;;;;;;;;;4977837;28;20078;-86
2023/08/24 04:45:52;;;;;;;19.98;15.32;;;;;;;;;;4977692;28;20053;-86
2023/08/24 04:48:20;;;;;;;17.48;14.88;;;;;;;;;;4994067;28;20058;-85
2023/08/24 04:50:49;;;;;;;18.42;16.23;;;;;;;;;;4977605;28;20046;-86
2023/08/24 04:56:39;;;;;;;19.30;15.95;;;;;;;;;;4994357;28;20045;-86
2023/08/24 04:59:07;;;;;;;18.35;14.30;;;;;;;;;;4977436;28;20089;-86
2023/08/24 05:01:35;;;;;;;19.80;17.88;;;;;;;;;;4977443;28;20134;-86
2023/08/24 05:04:02;;;;;;;19.17;16.98;;;;;;;;;;4977424;28;20113;-86
2023/08/24 05:06:29;;;;;;;23.63;19.42;;;;;;;;;;4977770;28;20054;-86
2023/08/24 05:08:57;;;;;;;21.65;19.08;;;;;;;;;;4977406;28;20050;-85
2023/08/24 05:11:26;;;;;;;21.95;19.63;;;;;;;;;;4979818;28;20061;-87
2023/08/24 05:13:53;;;;;;;17.73;15.90;;;;;;;;;;5003296;28;20086;-85
2023/08/24 05:16:20;;;;;;;22.45;20.05;;;;;;;;;;4999806;28;20418;-85
2023/08/24 05:18:48;;;;;;;21.75;19.33;;;;;;;;;;4979585;28;20078;-86
2023/08/24 05:21:15;;;;;;;21.45;14.73;;;;;;;;;;4977603;28;20046;-85
2023/08/24 05:23:42;;;;;;;17.60;14.60;;;;;;;;;;4994363;28;20058;-85
2023/08/24 05:26:10;;;;;;;17.02;10.20;;;;;;;;;;4976611;28;20058;-86
2023/08/24 05:28:37;;;;;;;18.40;9.32;;;;;;;;;;4994074;28;20494;-85
2023/08/24 05:31:04;;;;;;;8.32;7.38;;;;;;;;;;4977003;28;20046;-85
2023/08/24 05:33:33;;;;;;;18.73;11.30;;;;;;;;;;4994194;28;20049;-85
2023/08/24 05:36:00;;;;;;;7.72;6.85;;;;;;;;;;4994177;28;20046;-86
2023/08/24 05:38:27;;;;;;;20.33;8.25;;;;;;;;;;4976591;28;20451;-86
2023/08/24 05:40:55;;;;;;;10.55;5.95;;;;;;;;;;4976945;28;20061;-86
2023/08/24 05:43:22;;;;;;;12.43;6.35;;;;;;;;;;4976996;28;20051;-86
2023/08/24 05:45:49;;;;;;;14.18;7.68;;;;;;;;;;4976746;28;20102;-85
2023/08/24 05:48:17;;;;;;;8.50;7.13;;;;;;;;;;4978808;28;20054;-86
2023/08/24 05:50:45;;;;;;;8.60;7.35;;;;;;;;;;4997951;28;20463;-86
2023/08/24 05:53:12;;;;;;;8.95;5.30;;;;;;;;;;4997790;28;20483;-86
2023/08/24 05:55:40;;;;;;;7.50;6.68;;;;;;;;;;4980700;28;20124;-86
2023/08/24 05:58:07;;;;;;;6.88;5.75;;;;;;;;;;4980655;28;20125;-87
2023/08/24 06:00:35;;;;;;;6.82;5.38;;;;;;;;;;4997716;28;20490;-86
2023/08/24 06:03:02;;;;;;;6.28;5.07;;;;;;;;;;4980711;28;20081;-86
2023/08/24 06:05:31;;;;;;;9.65;5.18;;;;;;;;;;4997078;28;20046;-86
2023/08/24 06:07:58;;;;;;;9.68;4.65;;;;;;;;;;4979744;28;20105;-86
2023/08/24 06:10:26;;;;;;;8.10;4.85;;;;;;;;;;4980514;28;20046;-86
2023/08/24 06:12:54;;;;;;;6.78;4.85;;;;;;;;;;4980626;28;20108;-86
2023/08/24 06:15:24;;;;;;;18.33;11.45;;;;;;;;;;4979997;28;20570;-87
2023/08/24 06:17:51;;;;;;;20.48;10.27;;;;;;;;;;4980482;28;20057;-86
2023/08/24 06:20:20;;;;;;;17.40;7.40;;;;;;;;;;4980339;28;20558;-87
2023/08/24 06:22:47;;;;;;;10.02;4.25;;;;;;;;;;4980384;28;20050;-87
2023/08/24 06:25:15;;;;;;;3.25;3.03;;;;;;;;;;4980354;28;20078;-87
2023/08/24 06:27:42;;;;;;;3.40;3.10;;;;;;;;;;4980315;28;20042;-87
2023/08/24 06:30:09;;;;;;;7.15;3.28;;;;;;;;;;4980347;28;20550;-87
2023/08/24 06:32:37;;;;;;;5.35;3.15;;;;;;;;;;4996538;28;20142;-87
2023/08/24 06:35:05;;;;;;;8.13;3.78;;;;;;;;;;4979610;28;20149;-86
2023/08/24 06:37:33;;;;;;;4.40;3.95;;;;;;;;;;4980095;28;20509;-87
2023/08/24 06:40:00;;;;;;;3.85;3.22;;;;;;;;;;4979783;28;20058;-86
2023/08/24 06:42:28;;;;;;;4.13;3.83;;;;;;;;;;4977880;28;20067;-87
2023/08/24 06:44:55;;;;;;;4.57;3.33;;;;;;;;;;4976467;28;20047;-88
2023/08/24 06:47:22;;;;;;;4.55;3.67;;;;;;;;;;4977478;28;20487;-87
2023/08/24 06:49:50;;;;;;;9.02;3.72;;;;;;;;;;4960448;28;20142;-87
2023/08/24 06:52:17;;;;;;;4.97;3.08;;;;;;;;;;4960217;28;20537;-87
2023/08/24 06:54:44;;;;;;;4.13;3.35;;;;;;;;;;4972564;28;20056;-87
2023/08/24 06:57:12;;;;;;;3.05;2.72;;;;;;;;;;4979870;28;20125;-88
2023/08/24 06:59:39;;;;;;;4.05;3.28;;;;;;;;;;4979030;28;20050;-88
2023/08/24 07:02:07;;;;;;;9.10;3.47;;;;;;;;;;4979681;28;20079;-88
2023/08/24 07:04:34;;;;;;;5.88;3.55;;;;;;;;;;4979758;28;20487;-87
2023/08/24 07:07:01;;;;;;;5.50;3.15;;;;;;;;;;4979465;28;20498;-88
2023/08/24 07:09:29;;;;;;;5.60;2.65;;;;;;;;;;4979562;28;20077;-87
2023/08/24 07:11:57;;;;;;;7.85;3.10;;;;;;;;;;4978797;28;20486;-88
2023/08/24 07:14:24;;;;;;;6.47;3.10;;;;;;;;;;4979542;28;20070;-88
2023/08/24 07:16:52;;;;;;;24.95;4.88;;;;;;;;;;4979588;28;20238;-89
2023/08/24 07:19:19;;;;;;;24.40;4.97;;;;;;;;;;4979439;28;20046;-89
2023/08/24 07:21:46;;;;;;;27.85;5.13;;;;;;;;;;4979503;28;20096;-88
2023/08/24 07:24:13;;;;;;;20.17;4.78;;;;;;;;;;4979461;28;20514;-88
2023/08/24 07:26:42;;;;;;;15.43;3.42;;;;;;;;;;4979056;28;20124;-87
2023/08/24 07:29:09;;;;;;;10.43;3.33;;;;;;;;;;4979379;28;20485;-87
2023/08/24 07:31:36;;;;;;;15.98;3.15;;;;;;;;;;4979106;28;20109;-88
2023/08/24 07:34:05;;;;;;;8.32;3.10;;;;;;;;;;4979669;28;20410;-91
2023/08/24 07:36:33;;;;;;;11.10;2.80;;;;;;;;;;4978937;28;20133;-88
2023/08/24 07:39:00;;;;;;;7.75;2.75;;;;;;;;;;4978427;28;20085;-90
2023/08/24 07:41:27;;;;;;;11.05;2.65;;;;;;;;;;4978958;28;20058;-89
2023/08/24 07:43:54;;;;;;;7.75;3.35;;;;;;;;;;4978968;28;20073;-90
2023/08/24 07:46:22;;;;;;;20.33;3.80;;;;;;;;;;4978674;28;20106;-91
2023/08/24 07:48:49;;;;;;;12.27;3.60;;;;;;;;;;4978731;28;20077;-88
2023/08/24 07:51:16;;;;;;;13.18;3.35;;;;;;;;;;4978471;28;20109;-90
2023/08/24 07:53:44;;;;;;;10.07;2.50;;;;;;;;;;4995494;28;20129;-91
2023/08/24 07:56:11;;;;;;;8.68;2.65;;;;;;;;;;4978300;28;20081;-88
2023/08/24 07:58:38;;;;;;;11.95;2.40;;;;;;;;;;4978700;28;20050;-90
2023/08/24 08:01:05;;;;;;;7.65;2.85;;;;;;;;;;4988661;28;20058;-90
2023/08/24 08:03:35;;;;;;;7.35;2.50;;;;;;;;;;4995153;28;20054;-90
2023/08/24 08:06:03;;;;;;;6.70;2.60;;;;;;;;;;4985727;28;20078;-90
2023/08/24 08:08:30;;;;;;;7.00;2.60;;;;;;;;;;4979600;28;20058;-93
2023/08/24 08:10:59;;;;;;;3.83;2.00;;;;;;;;;;4977543;28;20085;-91
2023/08/24 08:13:28;;;;;;;8.90;2.90;;;;;;;;;;4978363;28;20062;-89
2023/08/24 08:16:05;;;;;;;5.68;2.20;;;;;;;;;;4978579;28;20507;-93
2023/08/24 08:18:33;;;;;;;9.65;2.35;;;;;;;;;;4970217;28;20058;-89
2023/08/24 08:21:01;;;;;;;4.75;2.10;;;;;;;;;;4978012;28;20312;-90
2023/08/24 08:23:29;;;;;;;9.45;2.17;;;;;;;;;;4995118;28;20386;-92
2023/08/24 08:25:56;;;;;;;8.75;2.20;;;;;;;;;;4994987;28;20085;-89
2023/08/24 08:28:23;;;;;;;3.90;1.90;;;;;;;;;;4978123;28;20085;-92
2023/08/24 08:30:51;;;;;;;4.03;2.33;;;;;;;;;;4978307;28;20462;-90
2023/08/24 08:33:19;;;;;;;5.93;2.00;;;;;;;;;;4977829;28;20105;-90
2023/08/24 08:35:46;;;;;;;4.50;2.15;;;;;;;;;;4977854;28;20054;-93
2023/08/24 08:38:14;;;;;;;4.30;1.80;;;;;;;;;;4994360;28;20055;-90
2023/08/24 08:40:41;;;;;;;2.50;2.03;;;;;;;;;;4994798;28;20438;-90
2023/08/24 08:43:09;;;;;;;2.97;2.15;;;;;;;;;;4996000;28;20054;-91
2023/08/24 08:45:36;;;;;;;3.83;2.30;;;;;;;;;;4977843;28;20109;-92
2023/08/24 08:48:05;;;;;;;7.68;2.22;;;;;;;;;;4977364;28;20074;-94
2023/08/24 08:50:33;;;;;;;3.45;1.65;;;;;;;;;;4994671;28;20050;-91
2023/08/24 08:53:00;;;;;;;3.05;2.10;;;;;;;;;;4994386;28;20141;-89
2023/08/24 08:55:28;;;;;;;2.05;1.77;;;;;;;;;;4977212;28;20077;-89
2023/08/24 08:58:00;;;;;;;4.43;2.15;;;;;;;;;;4994992;28;20061;-90
2023/08/24 09:00:27;;;;;;;5.22;2.08;;;;;;;;;;4977441;28;20057;-90
2023/08/24 09:02:57;;;;;;;8.27;2.33;;;;;;;;;;4977761;28;20046;-89
2023/08/24 09:05:26;;;;;;;5.57;2.10;;;;;;;;;;4995161;28;20105;-90
2023/08/24 09:07:57;;;;;;;4.35;2.03;;;;;;;;;;4978160;28;20129;-90
2023/08/24 09:10:29;;;;;;;1.90;1.80;;;;;;;;;;4977949;28;20054;-90
2023/08/24 09:12:56;;;;;;;8.27;1.85;;;;;;;;;;4977103;28;20109;-89
2023/08/24 09:15:25;;;;;;;3.33;1.98;;;;;;;;;;4993956;28;20116;-89
2023/08/24 09:17:52;;;;;;;5.97;2.33;;;;;;;;;;4976665;28;20058;-88
2023/08/24 09:20:20;;;;;;;5.75;2.00;;;;;;;;;;4976617;28;20046;-89
2023/08/24 09:22:48;;;;;;;2.08;1.92;;;;;;;;;;4976882;28;20058;-89
2023/08/24 09:25:15;;;;;;;2.83;2.40;;;;;;;;;;4992813;28;20473;-89
2023/08/24 09:27:42;;;;;;;2.50;1.80;;;;;;;;;;4975719;28;20117;-89
2023/08/24 09:30:11;;;;;;;2.22;2.03;;;;;;;;;;4976905;28;20042;-90
2023/08/24 09:32:38;;;;;;;3.28;2.22;;;;;;;;;;4977214;28;20138;-89
2023/08/24 09:35:10;;;;;;;3.08;2.05;;;;;;;;;;4976778;28;20049;-88
2023/08/24 09:37:38;;;;;;;5.45;2.20;;;;;;;;;;4977098;28;20082;-90
2023/08/24 09:40:07;;;;;;;5.57;2.30;;;;;;;;;;4993682;28;20133;-88
2023/08/24 09:42:42;;;;;;;2.33;1.98;;;;;;;;;;4977051;28;20056;-89
2023/08/24 09:45:13;;;;;;;5.65;2.15;;;;;;;;;;4994024;28;20109;-89
2023/08/24 09:47:55;;;;;;;2.28;2.08;;;;;;;;;;4977028;28;20050;-88
2023/08/24 09:50:23;;;;;;;3.42;2.30;;;;;;;;;;4976617;28;20050;-91
2023/08/24 09:52:54;;;;;;;5.45;2.00;;;;;;;;;;4993954;28;20534;-88
2023/08/24 09:55:22;;;;;;;2.83;2.30;;;;;;;;;;4976937;28;20050;-89
2023/08/24 09:57:54;;;;;;;4.72;2.33;;;;;;;;;;4994241;28;20053;-89
2023/08/24 10:00:24;;;;;;;4.40;2.00;;;;;;;;;;4977004;28;20057;-90
2023/08/24 10:02:54;;;;;;;2.90;2.13;;;;;;;;;;4993842;28;20046;-87
2023/08/24 10:05:26;;;;;;;5.10;1.95;;;;;;;;;;4994021;28;20414;-89
2023/08/24 10:08:08;;;;;;;5.32;1.80;;;;;;;;;;4978756;28;20133;-89
2023/08/24 10:10:36;;;;;;;1.92;1.83;;;;;;;;;;4976666;28;20486;-88
2023/08/24 10:13:09;;;;;;;3.05;1.70;;;;;;;;;;4976946;28;20303;-90
2023/08/24 10:15:41;;;;;;;2.67;1.65;;;;;;;;;;4976648;28;20046;-90
2023/08/24 10:18:08;;;;;;;1.60;1.50;;;;;;;;;;4976737;28;20042;-90
2023/08/24 10:20:36;;;;;;;2.75;1.30;;;;;;;;;;4993724;28;20454;-91
2023/08/24 10:23:03;;;;;;;2.58;1.60;;;;;;;;;;4976721;28;20120;-92
2023/08/24 10:25:32;;;;;;;3.88;1.63;;;;;;;;;;4985413;28;20141;-92
2023/08/24 10:28:00;;;;;;;3.40;1.40;;;;;;;;;;4976489;28;20161;-92
2023/08/24 10:30:30;;;;;;;1.73;1.63;;;;;;;;;;4976432;28;20105;-92
2023/08/24 10:32:58;;;;;;;1.23;1.10;;;;;;;;;;4993960;28;20470;-91
2023/08/24 10:35:26;;;;;;;1.52;1.40;;;;;;;;;;4979286;28;20054;-93
2023/08/24 10:37:54;;;;;;;3.55;1.50;;;;;;;;;;4979964;28;20550;-92
2023/08/24 10:40:31;;;;;;;3.30;1.40;;;;;;;;;;4980230;28;20046;-93
2023/08/24 10:42:59;;;;;;;2.55;1.58;;;;;;;;;;4980569;28;20050;-93
2023/08/24 10:45:26;;;;;;;3.20;1.60;;;;;;;;;;4981040;28;20495;-92
2023/08/24 10:47:53;;;;;;;3.33;1.60;;;;;;;;;;4983348;28;20128;-93
2023/08/24 10:50:22;;;;;;;5.45;1.52;;;;;;;;;;4987220;28;20050;-93
2023/08/24 10:52:50;;;;;;;1.63;1.52;;;;;;;;;;4990893;28;20050;-93
2023/08/24 10:55:25;;;;;;;2.92;1.50;;;;;;;;;;4987735;28;20054;-93
2023/08/24 10:58:00;;;;;;;2.83;1.77;;;;;;;;;;4979330;28;20057;-92
2023/08/24 11:00:30;;;;;;;6.65;1.77;;;;;;;;;;4979956;28;20054;-93
2023/08/24 11:03:00;;;;;;;2.05;1.73;;;;;;;;;;4980328;28;20042;-92
2023/08/24 11:05:33;;;;;;;3.55;1.73;;;;;;;;;;4979967;28;20064;-93
2023/08/24 11:08:04;;;;;;;2.08;1.48;;;;;;;;;;4980568;28;20116;-92
2023/08/24 11:10:48;;;;;;;3.05;1.55;;;;;;;;;;4979966;28;20050;-95
2023/08/24 11:13:19;;;;;;;3.80;1.40;;;;;;;;;;4980487;28;20047;-96
2023/08/24 11:15:47;;;;;;;2.42;1.95;;;;;;;;;;4979250;28;20093;-95
2023/08/24 11:18:22;;;;;;;7.05;1.70;;;;;;;;;;4980742;28;20141;-94
2023/08/24 11:20:54;;;;;;;3.85;1.52;;;;;;;;;;4980190;28;20062;-93
2023/08/24 11:23:23;;;;;;;6.25;1.58;;;;;;;;;;4984768;28;20027;-96
2023/08/24 11:25:57;;;;;;;3.25;1.40;;;;;;;;;;4981167;28;20058;-96
2023/08/24 11:28:25;;;;;;;1.83;1.50;;;;;;;;;;4981409;28;20066;-95
2023/08/24 11:30:53;;;;;;;2.33;2.08;;;;;;;;;;4980669;28;20077;-95
2023/08/24 11:33:31;;;;;;;3.58;1.73;;;;;;;;;;4983001;28;20058;-95
2023/08/24 11:36:07;;;;;;;2.67;1.73;;;;;;;;;;4984899;28;20051;-95
2023/08/24 11:38:39;;;;;;;2.72;1.60;;;;;;;;;;4985622;28;20567;-95
2023/08/24 11:41:14;;;;;;;3.92;1.75;;;;;;;;;;4984711;28;20090;-94
2023/08/24 11:43:44;;;;;;;1.77;1.63;;;;;;;;;;4985285;28;20061;-96
2023/08/24 11:46:12;;;;;;;2.28;2.08;;;;;;;;;;4981552;28;20108;-95
2023/08/24 11:48:40;;;;;;;3.13;1.83;;;;;;;;;;4993386;23;20051;-83
2023/08/24 11:51:17;;;;;;;4.88;2.08;;;;;;;;;;4978968;28;20046;-83
2023/08/24 11:53:59;;;;;;;1.83;1.58;;;;;;;;;;4981426;28;20079;-82
2023/08/24 11:56:28;;;;;;;3.03;2.05;;;;;;;;;;4979369;28;20046;-84
2023/08/24 11:58:55;;;;;;;2.03;1.60;;;;;;;;;;4979584;28;20117;-83
2023/08/24 12:01:24;;;;;;;3.00;1.55;;;;;;;;;;4983089;28;20065;-83
2023/08/24 12:03:51;;;;;;;6.35;2.00;;;;;;;;;;4979902;28;20109;-83
2023/08/24 12:06:19;;;;;;;12.50;2.05;;;;;;;;;;4978310;28;20053;-82
2023/08/24 12:08:47;;;;;;;6.20;2.20;;;;;;;;;;4996681;28;20050;-85
2023/08/24 12:11:16;;;;;;;2.85;1.90;;;;;;;;;;4995922;28;20051;-83
2023/08/24 12:13:44;;;;;;;3.28;1.60;;;;;;;;;;4978555;28;20050;-82
2023/08/24 12:16:13;;;;;;;2.35;1.98;;;;;;;;;;4978701;28;20447;-83
2023/08/24 12:18:48;;;;;;;3.25;2.05;;;;;;;;;;4978951;28;20137;-82
2023/08/24 12:21:15;;;;;;;3.78;1.77;;;;;;;;;;4978761;28;20418;-84
2023/08/24 12:23:43;;;;;;;5.65;1.85;;;;;;;;;;4978305;28;20514;-82
2023/08/24 12:26:17;;;;;;;3.53;1.45;;;;;;;;;;4978797;28;20050;-85
2023/08/24 12:28:49;;;;;;;8.40;1.65;;;;;;;;;;4995848;28;20050;-85
2023/08/24 12:31:17;;;;;;;3.15;1.67;;;;;;;;;;4977977;28;20053;-85
2023/08/24 12:33:45;;;;;;;2.13;1.55;;;;;;;;;;4979006;28;20514;-83
2023/08/24 12:36:12;;;;;;;1.90;1.60;;;;;;;;;;4978005;28;20058;-83
2023/08/24 12:38:42;;;;;;;4.38;1.38;;;;;;;;;;4995451;28;20058;-84
2023/08/24 12:41:09;;;;;;;2.70;2.00;;;;;;;;;;4991512;23;20570;-85
2023/08/24 12:43:37;;;;;;;2.67;1.60;;;;;;;;;;4976547;28;20058;-84
2023/08/24 12:46:07;;;;;;;4.72;1.70;;;;;;;;;;4978612;28;20046;-84
2023/08/24 12:48:34;;;;;;;2.97;1.70;;;;;;;;;;4978215;28;20046;-87
2023/08/24 12:51:01;;;;;;;1.80;1.70;;;;;;;;;;4977086;28;20054;-85
2023/08/24 12:53:29;;;;;;;1.88;1.50;;;;;;;;;;4976534;28;20108;-85
2023/08/24 12:55:56;;;;;;;4.43;1.60;;;;;;;;;;4976898;28;20512;-84
2023/08/24 12:58:23;;;;;;;1.58;1.48;;;;;;;;;;4975801;28;20062;-85
2023/08/24 13:00:51;;;;;;;2.72;1.60;;;;;;;;;;4976196;28;20058;-85
2023/08/24 13:03:18;;;;;;;7.00;2.13;;;;;;;;;;4976194;28;20141;-85
2023/08/24 13:05:47;;;;;;;4.50;1.70;;;;;;;;;;4976954;28;20069;-85
2023/08/24 13:08:14;;;;;;;12.30;2.78;;;;;;;;;;4993215;28;20069;-86
2023/08/24 13:10:42;;;;;;;9.43;2.47;;;;;;;;;;4976249;28;20046;-84
2023/08/24 13:13:09;;;;;;;8.45;2.58;;;;;;;;;;4976144;28;20054;-85
2023/08/24 13:15:37;;;;;;;9.00;2.30;;;;;;;;;;4976375;28;20053;-84
2023/08/24 13:18:04;;;;;;;7.20;2.30;;;;;;;;;;4977207;28;20494;-85
2023/08/24 13:20:31;;;;;;;5.72;2.05;;;;;;;;;;4976096;28;20421;-85
2023/08/24 13:22:58;;;;;;;6.43;2.10;;;;;;;;;;4975855;28;20057;-86
2023/08/24 13:25:27;;;;;;;7.53;1.90;;;;;;;;;;4993106;28;20070;-84
2023/08/24 13:27:56;;;;;;;2.08;1.70;;;;;;;;;;4976145;28;20104;-84
2023/08/24 13:30:23;;;;;;;2.58;1.52;;;;;;;;;;4976041;28;20053;-86
2023/08/24 13:32:50;;;;;;;3.63;2.22;;;;;;;;;;4976226;28;20053;-86
2023/08/24 13:35:18;;;;;;;5.55;1.90;;;;;;;;;;4976244;28;20048;-85
2023/08/24 13:37:45;;;;;;;2.15;1.65;;;;;;;;;;4976282;28;20050;-85
2023/08/24 13:40:14;;;;;;;4.78;1.70;;;;;;;;;;4975436;28;20050;-86
2023/08/24 13:42:41;;;;;;;4.25;1.90;;;;;;;;;;4975584;28;20484;-86
2023/08/24 13:45:08;;;;;;;3.92;1.58;;;;;;;;;;4976095;28;20082;-85
2023/08/24 13:47:36;;;;;;;5.07;1.80;;;;;;;;;;4975753;28;20429;-87
2023/08/24 13:50:04;;;;;;;2.40;1.77;;;;;;;;;;4975779;28;20059;-86
2023/08/24 13:52:31;;;;;;;1.77;1.40;;;;;;;;;;4975694;28;20042;-86
2023/08/24 13:54:59;;;;;;;4.57;1.88;;;;;;;;;;4975681;28;20102;-87
2023/08/24 13:57:39;;;;;;;3.25;1.65;;;;;;;;;;4993255;28;20058;-86
2023/08/24 14:00:08;;;;;;;3.28;1.83;;;;;;;;;;4975804;28;20062;-86
2023/08/24 14:02:35;;;;;;;1.45;1.30;;;;;;;;;;4975487;28;20216;-87
2023/08/24 14:05:03;;;;;;;3.83;1.73;;;;;;;;;;4975424;28;20507;-87
2023/08/24 14:07:30;;;;;;;5.95;1.90;;;;;;;;;;4975535;28;20058;-87
2023/08/24 14:09:57;;;;;;;2.88;1.60;;;;;;;;;;4978544;28;20136;-87
2023/08/24 14:12:33;;;;;;;2.80;2.03;;;;;;;;;;4980110;28;20046;-87
2023/08/24 14:15:00;;;;;;;9.40;1.90;;;;;;;;;;4997246;28;20047;-86
2023/08/24 14:17:28;;;;;;;4.18;1.90;;;;;;;;;;4979856;28;20054;-85
2023/08/24 14:19:55;;;;;;;7.50;1.85;;;;;;;;;;4997218;28;20070;-86
2023/08/24 14:22:22;;;;;;;3.00;2.00;;;;;;;;;;4980042;28;20104;-86
2023/08/24 14:24:50;;;;;;;2.70;1.83;;;;;;;;;;4979364;28;20043;-86
2023/08/24 14:27:17;;;;;;;13.40;3.75;;;;;;;;;;4980556;28;20108;-85
2023/08/24 14:29:44;;;;;;;9.65;2.00;;;;;;;;;;4996339;28;20105;-85
2023/08/24 14:32:11;;;;;;;2.63;2.05;;;;;;;;;;4979290;28;20050;-86
2023/08/24 14:34:39;;;;;;;5.75;1.90;;;;;;;;;;4979028;28;20109;-87
2023/08/24 14:37:06;;;;;;;2.83;1.63;;;;;;;;;;4978748;28;20104;-87
2023/08/24 14:39:33;;;;;;;15.90;3.60;;;;;;;;;;4979092;28;20100;-87
2023/08/24 14:42:02;;;;;;;14.82;3.15;;;;;;;;;;4978382;28;20629;-88
2023/08/24 14:44:30;;;;;;;16.00;3.00;;;;;;;;;;4979072;28;20053;-86